Orange Beach, AL

3:31 PM CDT on October 01, 2016 (GMT -0500)
Bermuda West Pier - Johnson Cove | | Change Station

Elev 13 ft 30.29 °N, 87.54 °W | Updated 15 seconds ago

Clear
Clear
77.6 °F
Feels Like 79 °F
N
8.0
Wind Variable Wind from SSE
Gusts 11.0 mph

Today
High -- | Low -- °F
--% Chance of Precip.
Yesterday
High -- | Low -- °F
Precip. -- in
Pressure 30.02 in
Visibility 10.0 miles
Clouds Clear
Heat Index 79 °F
Dew Point 60 °F
Humidity 54%
Rainfall 0.00 in
Snow Depth Not available.
6:43 AM 6:34 PM
New Moon, 1% visible
METAR KJKA 012015Z AUTO 18008KT 10SM CLR 27/15 A3002 RMK AO2 T02690152
Pressure 30.02 in
Visibility 10.0 miles
Clouds Clear
Heat Index 79 °F
Dew Point 60 °F
Humidity 54%
Rainfall 0.00 in
Snow Depth Not available.
6:43 AM 6:34 PM
New Moon, 1% visible
METAR KJKA 012015Z AUTO 18008KT 10SM CLR 27/15 A3002 RMK AO2 T02690152

10-Day Weather Forecast

Almanac

Astronomy

Oct. 01, 2016 Rise Set
Actual Time
Civil Twilight
Nautical Twilight
Astronomical Twilight
Moon
Length of Visible Light
Length of Day
Tomorrow will be .
, % of the Moon is Illuminated

Today's Extremes

State Highs State Lows

Community

WunderPhotos

Upload Photos

1,943,013 photos uploaded!

WunderBlog® & News

Nearby

Air Quality

  Air Quality AQ Index Pollutant
Not available.

Snow Depth

Station Depth Elevation

Earthquake Activity

City Distance Mag. Time & Date
Minimum magnitude displayed is 2.5.

Coastal Water Temperatures

Place Temperature

Stations

Nearby Weather Stations

Station Location Temp. Windchill Dew Point Humidity Wind Precip. Elev Updated Type
                   

Watches & Warnings

There are currently no watches in effect.